Time;durP1;ratioP1;P1;durP2;ratioP2;P2;SDS_P1;SDS_P2;PMS_P1;PMS_P2;Temp;Humidity;BMP_temperature;BMP_pressure;BME280_temperature;BME280_humidity;BME280_pressure;Samples;Min_cycle;Max_cycle;Signal;HPM_P1;HPM_P2
2024/02/18 00:01:34;;;;;;;10.32;9.52;;;;;;;29.01;61.38;101144.19;5039146;28;65709;-35
2024/02/18 00:04:04;;;;;;;14.77;11.13;;;;;;;29.01;62.32;101152.28;5038913;28;70679;-35
2024/02/18 00:06:35;;;;;;;15.57;10.75;;;;;;;29.09;62.77;101151.31;5040147;28;66443;-34
2024/02/18 00:09:06;;;;;;;14.73;12.15;;;;;;;29.11;63.87;101157.34;5030642;28;71516;-35
2024/02/18 00:11:36;;;;;;;13.90;12.23;;;;;;;29.15;64.83;101169.41;5039732;28;66257;-34
2024/02/18 00:14:07;;;;;;;16.95;12.68;;;;;;;29.20;64.31;101161.56;5055079;28;69750;-34
2024/02/18 00:16:37;;;;;;;15.85;12.65;;;;;;;29.18;66.77;101169.00;5037362;28;65565;-34
2024/02/18 00:19:08;;;;;;;18.23;12.60;;;;;;;29.25;65.20;101169.84;5040321;28;69978;-34
2024/02/18 00:21:39;;;;;;;13.47;12.17;;;;;;;29.26;65.58;101178.81;5040491;28;65996;-34
2024/02/18 00:24:10;;;;;;;17.73;12.43;;;;;;;29.28;66.05;101180.28;5038022;28;69412;-35
2024/02/18 00:26:40;;;;;;;18.38;12.30;;;;;;;29.28;65.52;101179.44;5040164;28;65697;-35
2024/02/18 00:29:26;;;;;;;13.93;12.43;;;;;;;29.27;65.89;101173.19;5026527;28;70164;-34
2024/02/18 00:31:57;;;;;;;18.40;12.55;;;;;;;29.36;66.80;101180.09;5038083;28;66014;-35
2024/02/18 00:34:28;;;;;;;16.75;12.38;;;;;;;29.37;67.63;101178.22;5037098;28;69878;-35
2024/02/18 00:36:59;;;;;;;16.00;12.23;;;;;;;29.39;67.11;101182.41;5040768;28;65821;-35
2024/02/18 00:39:30;;;;;;;18.20;13.25;;;;;;;29.43;66.50;101187.41;5038485;28;69527;-35
2024/02/18 00:42:00;;;;;;;21.90;14.20;;;;;;;29.40;68.66;101188.63;5036019;28;67065;-34
2024/02/18 00:44:31;;;;;;;23.25;16.58;;;;;;;29.46;67.57;101197.81;5035049;28;70233;-33
2024/02/18 00:47:03;;;;;;;28.67;19.45;;;;;;;29.45;67.67;101188.00;5032512;28;65600;-36
2024/02/18 00:49:34;;;;;;;29.88;19.55;;;;;;;29.48;68.77;101199.25;5036668;28;69435;-36
2024/02/18 00:52:05;;;;;;;55.63;20.38;;;;;;;29.55;68.73;101207.38;5035786;28;65534;-35
2024/02/18 00:54:36;;;;;;;39.05;17.90;;;;;;;29.49;68.88;101202.78;5034013;28;70746;-34
2024/02/18 00:57:06;;;;;;;31.02;17.17;;;;;;;29.54;68.75;101211.13;5034548;28;66162;-34
2024/02/18 00:59:37;;;;;;;25.55;17.42;;;;;;;29.55;69.22;101218.19;5031730;28;70447;-34
2024/02/18 01:02:07;;;;;;;25.90;16.52;;;;;;;29.50;69.97;101215.25;5035550;28;67011;-36
2024/02/18 01:04:38;;;;;;;34.50;18.85;;;;;;;29.47;70.05;101215.66;5035510;28;70305;-35
2024/02/18 01:07:11;;;;;;;22.98;17.13;;;;;;;29.58;69.19;101223.19;5032340;28;65588;-36
2024/02/18 01:09:42;;;;;;;21.88;16.83;;;;;;;29.59;69.69;101236.53;5033016;28;69466;-35
2024/02/18 01:12:12;;;;;;;25.08;14.93;;;;;;;29.62;68.86;101230.69;5032244;28;66859;-38
2024/02/18 01:14:44;;;;;;;25.30;15.45;;;;;;;29.47;68.49;101204.84;5035251;28;70982;-35
2024/02/18 01:17:15;;;;;;;25.52;14.45;;;;;;;29.68;68.36;101239.06;5035221;28;66047;-36
2024/02/18 01:19:45;;;;;;;25.85;15.48;;;;;;;29.71;68.59;101242.19;5034830;28;69379;-35
2024/02/18 01:22:16;;;;;;;18.67;14.73;;;;;;;29.72;68.18;101246.56;5036768;28;66438;-36
2024/02/18 01:24:46;;;;;;;24.40;16.95;;;;;;;29.74;68.79;101255.31;5035879;28;70190;-36
2024/02/18 01:27:19;;;;;;;23.45;16.25;;;;;;;29.60;68.04;101216.53;5034838;28;66518;-36
2024/02/18 01:29:50;;;;;;;26.45;15.27;;;;;;;29.79;68.78;101254.69;5033160;28;70406;-37
2024/02/18 01:32:20;;;;;;;27.73;16.15;;;;;;;29.81;68.20;101258.88;5038482;28;66615;-35
2024/02/18 01:34:54;;;;;;;26.23;16.08;;;;;;;29.85;68.22;101262.00;5036938;28;70041;-35
2024/02/18 01:37:27;;;;;;;24.92;15.30;;;;;;;29.86;68.61;101262.81;5027851;28;66429;-35
2024/02/18 01:39:57;;;;;;;37.60;15.77;;;;;;;29.90;68.57;101273.03;5037929;28;70284;-35
2024/02/18 01:42:28;;;;;;;29.48;15.82;;;;;;;29.90;68.08;101267.63;5036930;28;65714;-35
2024/02/18 01:44:58;;;;;;;24.35;15.75;;;;;;;29.95;68.31;101272.41;5037617;28;69947;-35
2024/02/18 01:47:29;;;;;;;22.52;14.40;;;;;;;29.97;68.84;101275.75;5039420;28;68151;-34
2024/02/18 01:50:00;;;;;;;22.65;14.38;;;;;;;29.99;68.93;101279.91;5037739;28;69594;-36
2024/02/18 01:52:32;;;;;;;19.45;14.00;;;;;;;30.02;68.57;101279.50;5038981;28;67008;-35
2024/02/18 01:55:04;;;;;;;23.75;14.32;;;;;;;29.99;68.83;101274.50;5038144;28;69720;-35
2024/02/18 01:57:37;;;;;;;17.83;13.95;;;;;;;30.08;68.21;101279.72;5035697;28;66709;-35
2024/02/18 02:00:12;;;;;;;16.20;14.18;;;;;;;30.11;68.97;101284.72;5034190;28;69506;-35
2024/02/18 02:02:46;;;;;;;22.95;14.57;;;;;;;30.12;68.67;101283.69;5033156;28;66437;-35
2024/02/18 02:05:20;;;;;;;20.23;13.25;;;;;;;29.99;69.16;101260.97;5030878;28;70142;-36
2024/02/18 02:07:51;;;;;;;25.42;14.70;;;;;;;30.22;68.54;101293.09;5030078;28;66089;-36
2024/02/18 02:10:22;;;;;;;19.73;14.43;;;;;;;30.26;68.89;101296.25;5032198;28;70307;-35
2024/02/18 02:12:52;;;;;;;19.33;14.27;;;;;;;30.28;68.76;101295.00;5032529;28;65265;-36
2024/02/18 02:15:23;;;;;;;22.77;14.20;;;;;;;30.34;68.88;101297.88;5032887;28;70644;-36
2024/02/18 02:17:54;;;;;;;21.95;14.80;;;;;;;30.34;68.96;101287.91;5032056;28;66768;-36
2024/02/18 02:20:24;;;;;;;18.85;14.20;;;;;;;30.38;69.26;101291.03;5031900;28;69592;-35
2024/02/18 02:22:55;;;;;;;19.58;13.90;;;;;;;30.41;69.59;101302.28;5033526;28;66113;-36
2024/02/18 02:25:26;;;;;;;25.25;14.18;;;;;;;30.48;69.20;101294.19;5032771;28;69521;-36
2024/02/18 02:28:17;;;;;;;17.80;13.40;;;;;;;30.45;70.31;101292.72;5035839;28;65812;-35
2024/02/18 02:30:48;;;;;;;15.52;13.77;;;;;;;30.46;69.01;101280.00;5036969;28;70895;-36
2024/02/18 02:33:20;;;;;;;13.95;12.75;;;;;;;30.53;68.66;101286.22;5041171;28;65872;-35
2024/02/18 02:35:51;;;;;;;14.90;13.20;;;;;;;30.56;68.32;101290.41;5039348;28;70075;-37
2024/02/18 02:38:22;;;;;;;16.70;12.70;;;;;;;30.58;68.66;101289.16;5038709;28;66169;-35
2024/02/18 02:40:52;;;;;;;15.45;13.73;;;;;;;30.62;68.34;101287.72;5040421;28;69046;-36
2024/02/18 02:43:23;;;;;;;16.55;13.00;;;;;;;30.64;68.20;101287.50;5032823;28;65985;-35
2024/02/18 02:45:54;;;;;;;13.52;12.20;;;;;;;30.67;67.96;101290.63;5028068;28;69837;-35
2024/02/18 02:48:25;;;;;;;13.30;12.02;;;;;;;30.68;67.70;101286.88;5033722;28;67831;-35
2024/02/18 02:50:55;;;;;;;16.23;13.05;;;;;;;30.74;67.82;101287.91;5032712;28;70760;-36
2024/02/18 02:53:27;;;;;;;13.90;12.43;;;;;;;30.78;67.74;101282.91;5040578;28;66075;-36
2024/02/18 02:55:57;;;;;;;13.60;12.23;;;;;;;30.78;67.42;101282.91;5040610;28;69650;-35
2024/02/18 02:58:28;;;;;;;13.35;11.65;;;;;;;30.84;67.91;101287.50;5028243;28;66558;-35
2024/02/18 03:01:00;;;;;;;13.25;11.80;;;;;;;30.86;67.96;101282.72;5039723;28;70046;-35
2024/02/18 03:03:31;;;;;;;15.18;12.15;;;;;;;30.87;67.76;101271.69;5038862;28;65174;-39
2024/02/18 03:06:02;;;;;;;14.90;12.57;;;;;;;30.94;67.55;101277.06;5038938;28;70957;-36
2024/02/18 03:08:33;;;;;;;20.02;12.70;;;;;;;30.96;67.07;101283.13;5041041;28;66264;-35
2024/02/18 03:11:04;;;;;;;16.10;12.32;;;;;;;30.99;67.12;101273.75;5040101;28;68850;-36
2024/02/18 03:13:34;;;;;;;18.55;12.40;;;;;;;31.01;67.05;101268.91;5039135;28;66921;-34
2024/02/18 03:16:07;;;;;;;15.20;12.68;;;;;;;31.05;67.21;101262.03;5040151;28;69984;-35
2024/02/18 03:18:38;;;;;;;16.52;13.70;;;;;;;31.07;67.06;101266.22;5039836;28;65952;-36
2024/02/18 03:21:09;;;;;;;13.40;12.15;;;;;;;31.08;66.81;101267.88;5038238;28;70164;-34
2024/02/18 03:23:40;;;;;;;13.95;12.35;;;;;;;31.11;66.91;101262.03;5040540;28;65818;-35
2024/02/18 03:26:11;;;;;;;13.63;12.43;;;;;;;31.14;66.76;101269.72;5038970;28;70482;-35
2024/02/18 03:28:41;;;;;;;15.82;12.50;;;;;;;31.19;66.79;101262.84;5040534;28;65542;-36
2024/02/18 03:31:19;;;;;;;14.90;12.73;;;;;;;31.21;67.19;101260.75;5041047;28;70529;-36
2024/02/18 03:33:49;;;;;;;14.60;12.40;;;;;;;31.24;66.86;101260.31;5036889;28;65482;-35
2024/02/18 03:36:21;;;;;;;15.57;12.90;;;;;;;31.26;66.54;101252.78;5040108;28;70360;-35
2024/02/18 03:38:51;;;;;;;13.75;12.65;;;;;;;31.29;66.43;101249.69;5038618;28;65760;-36
2024/02/18 03:41:22;;;;;;;13.77;12.57;;;;;;;31.32;66.56;101250.06;5038562;28;70041;-35
2024/02/18 03:43:53;;;;;;;13.82;12.52;;;;;;;31.37;66.17;101244.88;5039291;28;66246;-36
2024/02/18 03:46:24;;;;;;;14.75;13.20;;;;;;;31.39;66.69;101241.94;5038461;28;69624;-35
2024/02/18 03:48:55;;;;;;;15.68;13.38;;;;;;;31.42;66.39;101236.09;5039768;28;65210;-35
2024/02/18 03:51:26;;;;;;;19.85;14.60;;;;;;;31.37;67.24;101233.19;5038204;28;71869;-36
2024/02/18 03:53:57;;;;;;;19.17;13.35;;;;;;;31.38;67.24;101238.41;5039717;28;66209;-35
2024/02/18 03:56:32;;;;;;;17.77;13.45;;;;;;;31.37;67.29;101230.47;5039954;28;71291;-35
2024/02/18 03:59:03;;;;;;;14.95;13.40;;;;;;;31.37;67.37;101233.19;5040125;28;65563;-35
2024/02/18 04:01:39;;;;;;;29.02;13.52;;;;;;;31.24;67.59;101200.72;5038714;28;69921;-34
2024/02/18 04:04:11;;;;;;;15.52;13.93;;;;;;;31.42;66.91;101224.41;5029892;28;67060;-36
2024/02/18 04:06:42;;;;;;;18.67;13.65;;;;;;;31.43;67.33;101221.50;5038903;28;70006;-34
2024/02/18 04:09:13;;;;;;;21.00;14.45;;;;;;;31.43;67.43;101215.25;5037541;28;66115;-36
2024/02/18 04:11:44;;;;;;;16.10;14.20;;;;;;;31.42;67.16;101200.00;5038569;28;69385;-35
2024/02/18 04:14:15;;;;;;;18.42;14.57;;;;;;;31.46;67.60;101199.38;5038756;28;66707;-34
2024/02/18 04:16:47;;;;;;;17.40;15.07;;;;;;;31.51;68.62;101201.41;5027810;28;70655;-35
2024/02/18 04:19:18;;;;;;;23.73;14.55;;;;;;;31.44;68.62;101185.19;5035265;28;66257;-35
2024/02/18 04:21:49;;;;;;;19.25;15.25;;;;;;;31.56;68.61;101183.44;5027905;28;70406;-35
2024/02/18 04:24:20;;;;;;;18.02;14.25;;;;;;;31.56;69.28;101186.16;5038878;28;66301;-35
2024/02/18 04:26:50;;;;;;;16.50;14.95;;;;;;;31.57;69.03;101179.69;5039142;28;70290;-35
2024/02/18 04:29:21;;;;;;;17.70;14.25;;;;;;;31.56;67.40;101180.72;5037618;28;66111;-36
2024/02/18 04:31:53;;;;;;;18.10;13.57;;;;;;;31.46;65.38;101172.25;5038912;28;69794;-34
2024/02/18 04:34:24;;;;;;;14.75;12.90;;;;;;;31.42;63.68;101165.59;5037085;28;66657;-35
2024/02/18 04:36:55;;;;;;;16.45;13.10;;;;;;;31.38;62.14;101165.22;5035102;28;70259;-35
2024/02/18 04:39:26;;;;;;;13.90;12.43;;;;;;;31.35;60.96;101159.38;5033010;28;66632;-36
2024/02/18 04:41:58;;;;;;;15.40;12.63;;;;;;;31.37;60.31;101162.69;5036784;28;70422;-36
2024/02/18 04:44:28;;;;;;;;;;;;;;;31.20;59.35;101161.50;5037954;28;65862;-34
2024/02/18 04:46:59;;;;;;;18.98;12.77;;;;;;;31.22;59.04;101154.00;5038825;28;69274;-34
2024/02/18 04:49:31;;;;;;;17.45;12.15;;;;;;;31.32;58.79;101159.81;5038439;28;66249;-35
2024/02/18 04:52:06;;;;;;;14.90;11.68;;;;;;;31.32;58.37;101146.25;5034030;28;69272;-34
2024/02/18 04:54:37;;;;;;;13.57;12.38;;;;;;;31.29;57.76;101143.97;5039275;28;66802;-35
2024/02/18 04:57:09;;;;;;;14.00;11.90;;;;;;;31.28;57.30;101136.88;5037493;28;69281;-35
2024/02/18 04:59:40;;;;;;;11.97;10.77;;;;;;;31.25;56.70;101138.13;5035512;28;65810;-35
2024/02/18 05:02:12;;;;;;;12.93;11.38;;;;;;;31.20;56.35;101129.00;5037985;28;69543;-36
2024/02/18 05:04:45;;;;;;;12.50;11.40;;;;;;;31.19;56.07;101121.94;5026352;28;65784;-34
2024/02/18 05:07:16;;;;;;;12.90;11.80;;;;;;;31.15;56.27;101122.38;5036766;28;69551;-35
2024/02/18 05:09:47;;;;;;;15.45;12.10;;;;;;;31.11;55.69;101115.69;5037032;28;65829;-35
2024/02/18 05:12:17;;;;;;;11.95;10.95;;;;;;;31.10;55.49;101111.34;5035586;28;70899;-35
2024/02/18 05:14:48;;;;;;;12.15;11.13;;;;;;;31.03;55.44;101102.41;5038791;28;66510;-37
2024/02/18 05:17:19;;;;;;;12.73;11.63;;;;;;;31.07;55.03;101103.66;5034798;28;71219;-36
2024/02/18 05:19:51;;;;;;;12.60;11.30;;;;;;;31.06;54.92;101093.84;5032914;28;66273;-37
2024/02/18 05:22:23;;;;;;;11.57;10.48;;;;;;;31.07;54.66;101086.56;5029350;28;70688;-35
2024/02/18 05:24:56;;;;;;;13.30;11.23;;;;;;;31.04;54.74;101087.81;5037916;28;66798;-34
2024/02/18 05:27:29;;;;;;;15.95;11.05;;;;;;;31.06;55.10;101079.47;5038242;28;71724;-35
2024/02/18 05:29:59;;;;;;;;;;;;;;;31.05;54.07;101067.81;5039401;28;66148;-35
2024/02/18 05:32:31;;;;;;;19.40;11.50;;;;;;;31.06;54.95;101063.19;5038262;28;70199;-34
2024/02/18 05:35:02;;;;;;;11.85;10.85;;;;;;;31.03;54.91;101055.50;5033915;28;66264;-35
2024/02/18 05:37:37;;;;;;;16.63;10.57;;;;;;;31.00;54.69;101054.06;5032307;28;70687;-35
2024/02/18 05:40:10;;;;;;;11.00;10.18;;;;;;;31.02;54.66;101043.84;5036627;28;66505;-36
2024/02/18 05:42:46;;;;;;;10.93;10.05;;;;;;;31.02;54.26;101041.16;5036033;28;70433;-35
2024/02/18 05:45:21;;;;;;;12.07;10.70;;;;;;;31.02;54.39;101041.16;5037048;28;66684;-35
2024/02/18 05:47:52;;;;;;;12.95;10.55;;;;;;;31.02;54.25;101024.88;5038353;28;70576;-35
2024/02/18 05:50:25;;;;;;;10.75;9.93;;;;;;;31.04;54.47;101022.81;5038729;28;66548;-34
2024/02/18 05:52:56;;;;;;;11.13;10.15;;;;;;;31.06;54.25;101020.69;5035865;28;70068;-35
2024/02/18 05:55:29;;;;;;;11.33;10.20;;;;;;;31.01;53.91;101006.13;5036690;28;66404;-36
2024/02/18 05:58:00;;;;;;;12.30;11.13;;;;;;;31.07;54.18;101000.69;5037873;28;68804;-36
2024/02/18 06:00:31;;;;;;;10.43;9.73;;;;;;;31.04;53.65;101011.13;5035955;28;65909;-36
2024/02/18 06:03:08;;;;;;;14.52;10.77;;;;;;;31.05;53.75;101007.38;5042396;28;70386;-36
2024/02/18 06:05:39;;;;;;;10.75;9.85;;;;;;;31.01;53.50;100989.88;5040689;28;65699;-34
2024/02/18 06:08:10;;;;;;;11.70;10.52;;;;;;;31.08;53.42;100994.22;5042021;28;70091;-35
2024/02/18 06:10:41;;;;;;;10.82;9.93;;;;;;;31.06;53.16;101001.72;5042553;28;66270;-36
2024/02/18 06:13:14;;;;;;;11.00;9.88;;;;;;;31.06;53.19;100999.00;5033000;28;70138;-36
2024/02/18 06:15:47;;;;;;;10.70;9.80;;;;;;;31.08;53.03;100991.50;5038120;28;66873;-36
2024/02/18 06:18:18;;;;;;;10.48;9.75;;;;;;;31.06;53.17;100988.16;5041477;28;70261;-36
2024/02/18 06:20:52;;;;;;;11.13;10.23;;;;;;;31.06;52.87;100982.75;5040205;28;65768;-35
2024/02/18 06:23:25;;;;;;;11.00;10.15;;;;;;;31.10;52.79;100986.69;5040608;28;70132;-34
2024/02/18 06:25:56;;;;;;;11.30;10.30;;;;;;;31.09;52.94;100979.63;5040558;28;66205;-35
2024/02/18 06:28:32;;;;;;;10.25;9.63;;;;;;;31.09;52.63;100966.09;5040209;28;69386;-36
2024/02/18 06:31:04;;;;;;;11.10;10.20;;;;;;;31.09;52.86;100974.22;5041793;28;65589;-34
2024/02/18 06:33:35;;;;;;;10.23;9.43;;;;;;;31.09;52.43;100963.38;5040387;28;69431;-36
2024/02/18 06:36:08;;;;;;;9.60;8.85;;;;;;;31.13;52.61;100961.88;5030688;28;64991;-35
2024/02/18 06:38:43;;;;;;;10.38;9.50;;;;;;;31.14;52.56;100957.28;5039477;28;69946;-34
2024/02/18 06:41:15;;;;;;;10.18;9.43;;;;;;;31.15;52.15;100942.69;5040746;28;65290;-35
2024/02/18 06:43:46;;;;;;;9.97;9.37;;;;;;;31.15;52.58;100943.53;5042147;28;70232;-35
2024/02/18 06:46:19;;;;;;;10.20;9.27;;;;;;;31.19;52.30;100943.06;5042611;28;66221;-35
2024/02/18 06:48:54;;;;;;;10.40;9.60;;;;;;;31.17;51.77;100941.44;5040455;28;68385;-35
2024/02/18 06:51:25;;;;;;;12.10;9.85;;;;;;;31.21;52.40;100935.56;5042520;28;66551;-35
2024/02/18 06:53:59;;;;;;;10.73;9.93;;;;;;;31.19;51.94;100926.81;5041106;28;70784;-35
2024/02/18 06:56:32;;;;;;;9.68;8.77;;;;;;;31.22;52.04;100926.38;5039739;28;65623;-35
2024/02/18 06:59:05;;;;;;;9.75;8.48;;;;;;;31.24;52.14;100913.44;5041299;28;70199;-35
2024/02/18 07:01:36;;;;;;;10.05;9.35;;;;;;;31.26;51.70;100905.88;5038119;28;65694;-35
2024/02/18 07:04:09;;;;;;;9.88;9.30;;;;;;;31.26;51.60;100905.88;5041246;28;70229;-35
2024/02/18 07:06:40;;;;;;;9.60;8.77;;;;;;;31.28;51.82;100898.38;5028039;28;66164;-35
2024/02/18 07:09:10;;;;;;;10.35;9.35;;;;;;;31.31;51.77;100904.16;5039566;28;69332;-35
2024/02/18 07:11:41;;;;;;;8.88;8.27;;;;;;;31.34;51.44;100900.19;5040574;28;66264;-34
2024/02/18 07:14:13;;;;;;;9.30;8.70;;;;;;;31.36;51.56;100904.38;5038527;28;70255;-35
2024/02/18 07:16:45;;;;;;;9.38;8.18;;;;;;;31.32;51.93;100884.16;5040818;28;66048;-35
2024/02/18 07:19:20;;;;;;;9.32;8.65;;;;;;;31.41;51.99;100892.03;5038979;28;70418;-35
2024/02/18 07:21:52;;;;;;;10.38;9.40;;;;;;;31.42;51.54;100886.38;5038777;28;67088;-36
2024/02/18 07:24:23;;;;;;;8.82;8.20;;;;;;;31.45;51.84;100893.25;5027671;28;69778;-37
2024/02/18 07:26:53;;;;;;;10.13;9.13;;;;;;;31.45;51.38;100883.22;5041371;28;66765;-35
2024/02/18 07:29:27;;;;;;;8.93;8.30;;;;;;;31.49;51.37;100884.44;5039859;28;69569;-35
2024/02/18 07:32:01;;;;;;;8.85;8.05;;;;;;;31.51;51.68;100876.06;5039352;28;66311;-35
2024/02/18 07:34:32;;;;;;;9.10;8.50;;;;;;;31.52;51.50;100875.84;5037695;28;69209;-34
2024/02/18 07:37:05;;;;;;;10.70;9.80;;;;;;;31.58;51.64;100876.84;5038007;28;66231;-35
2024/02/18 07:39:40;;;;;;;10.20;9.50;;;;;;;31.59;51.53;100879.34;5025099;28;70253;-43
2024/02/18 07:42:13;;;;;;;9.88;9.02;;;;;;;31.63;51.41;100873.47;5034377;28;65622;-34
2024/02/18 07:44:45;;;;;;;9.43;8.75;;;;;;;31.67;51.37;100869.22;5038519;28;70134;-35
2024/02/18 07:47:19;;;;;;;10.27;9.32;;;;;;;31.68;51.05;100877.16;5041214;28;66054;-34
2024/02/18 07:49:52;;;;;;;9.15;8.63;;;;;;;31.71;51.01;100859.59;5038754;28;69744;-35
2024/02/18 07:52:25;;;;;;;10.15;9.23;;;;;;;31.73;51.38;100865.59;5039491;28;65504;-35
2024/02/18 07:54:56;;;;;;;9.95;8.30;;;;;;;31.77;51.14;100869.53;5038792;28;70466;-35
2024/02/18 07:57:27;;;;;;;9.60;8.90;;;;;;;31.80;51.13;100863.66;5036897;28;64621;-34
2024/02/18 08:00:04;;;;;;;9.15;8.45;;;;;;;31.79;51.26;100862.84;5040888;28;70283;-35
2024/02/18 08:02:41;;;;;;;9.52;8.93;;;;;;;31.86;50.74;100862.75;5039365;28;66216;-35
2024/02/18 08:05:13;;;;;;;17.88;8.85;;;;;;;31.92;50.77;100861.84;5041489;28;70339;-34
2024/02/18 08:07:45;;;;;;;10.07;9.27;;;;;;;31.92;50.97;100872.72;5040564;28;66604;-35
2024/02/18 08:10:20;;;;;;;9.73;8.98;;;;;;;31.96;51.14;100871.22;5037981;28;69958;-35
2024/02/18 08:12:53;;;;;;;9.50;8.90;;;;;;;31.94;51.09;100854.31;5038890;28;66118;-35
2024/02/18 08:15:25;;;;;;;11.65;9.20;;;;;;;32.05;50.87;100867.13;5026091;28;70516;-33
2024/02/18 08:17:56;;;;;;;10.45;9.45;;;;;;;32.10;51.25;100868.34;5005747;28;65917;-36
2024/02/18 08:20:28;;;;;;;10.02;8.98;;;;;;;32.11;51.31;100875.41;5034708;28;69536;-34
2024/02/18 08:22:59;;;;;;;10.50;9.80;;;;;;;32.16;51.49;100862.00;5030414;28;65763;-35
2024/02/18 08:25:33;;;;;;;10.27;9.47;;;;;;;32.22;51.06;100855.63;5036243;28;70120;-34
2024/02/18 08:28:05;;;;;;;10.38;9.75;;;;;;;32.29;51.21;100856.38;5013456;28;65010;-34
2024/02/18 08:30:40;;;;;;;11.32;10.45;;;;;;;32.19;51.49;100839.81;5034277;28;69221;-35
2024/02/18 08:33:12;;;;;;;15.85;13.73;;;;;;;32.39;51.25;100867.50;5007540;28;66638;-34
2024/02/18 08:35:43;;;;;;;15.02;13.73;;;;;;;32.45;51.47;100866.56;5033911;28;69988;-35
2024/02/18 08:38:14;;;;;;;15.75;12.98;;;;;;;32.45;51.41;100854.88;5038254;28;66379;-34
2024/02/18 08:40:46;;;;;;;32.25;17.77;;;;;;;32.54;51.19;100860.81;5039140;28;70262;-34
2024/02/18 08:43:17;;;;;;;15.13;13.52;;;;;;;32.62;52.63;100865.94;5027456;28;65731;-36
2024/02/18 08:45:53;;;;;;;17.88;12.93;;;;;;;32.62;53.25;100860.50;5041676;28;69632;-34
2024/02/18 08:48:24;;;;;;;12.88;11.68;;;;;;;32.76;53.74;100861.13;5038409;28;66877;-35
2024/02/18 08:50:57;;;;;;;19.42;11.32;;;;;;;32.88;54.22;100865.53;5037660;28;69836;-35
2024/02/18 08:53:29;;;;;;;12.25;10.27;;;;;;;32.99;54.16;100863.03;5038558;28;66487;-35
2024/02/18 08:56:04;;;;;;;13.38;11.40;;;;;;;33.08;54.66;100854.34;5038398;28;70208;-35
2024/02/18 08:58:37;;;;;;;22.92;10.35;;;;;;;33.23;56.01;100855.75;5008494;28;65177;-37
2024/02/18 09:01:10;;;;;;;;;;;;;;;33.34;57.13;100847.56;5021773;28;69075;-35
2024/02/18 09:03:43;;;;;;;13.63;10.23;;;;;;;33.46;57.14;100860.31;5034896;28;65597;-35
2024/02/18 09:06:16;;;;;;;22.25;10.45;;;;;;;33.51;57.82;100853.09;5036176;28;70081;-36
2024/02/18 09:08:47;;;;;;;15.23;11.07;;;;;;;33.64;57.44;100860.22;5035768;28;65980;-35
2024/02/18 09:11:19;;;;;;;13.52;9.88;;;;;;;33.70;58.25;100859.25;5035341;28;70256;-34
2024/02/18 09:13:52;;;;;;;10.68;9.60;;;;;;;33.82;58.27;100864.66;5036229;28;66088;-35
2024/02/18 09:16:23;;;;;;;10.93;9.90;;;;;;;33.90;58.23;100849.84;5033978;28;69572;-35
2024/02/18 09:18:54;;;;;;;19.20;9.38;;;;;;;33.99;58.83;100864.72;5030075;28;65929;-35
2024/02/18 09:21:25;;;;;;;16.17;10.43;;;;;;;34.12;58.37;100866.38;5032203;28;70100;-36
2024/02/18 09:23:58;;;;;;;12.40;9.60;;;;;;;34.24;57.83;100858.97;5030050;28;65430;-35
2024/02/18 09:26:29;;;;;;;12.15;8.60;;;;;;;34.35;58.35;100866.28;5028468;28;71316;-35
2024/02/18 09:29:00;;;;;;;9.00;8.20;;;;;;;34.32;58.32;100849.59;5037950;28;65634;-36
2024/02/18 09:31:40;;;;;;;16.38;9.85;;;;;;;34.53;58.61;100876.13;5036157;28;71414;-35
2024/02/18 09:34:14;;;;;;;10.35;9.43;;;;;;;34.66;57.75;100885.94;5033369;28;66306;-35
2024/02/18 09:36:45;;;;;;;13.02;9.73;;;;;;;34.70;57.93;100885.16;5032578;28;70585;-35
2024/02/18 09:39:21;;;;;;;10.75;9.52;;;;;;;34.82;58.14;100889.72;5029732;28;66929;-37
2024/02/18 09:41:58;;;;;;;13.82;10.40;;;;;;;34.55;58.50;100835.84;5038705;28;69535;-36
2024/02/18 09:44:33;;;;;;;14.50;9.68;;;;;;;34.94;58.44;100882.31;5035085;28;66685;-36
2024/02/18 09:47:07;;;;;;;10.15;9.27;;;;;;;34.84;58.38;100850.25;5033736;28;70151;-35
2024/02/18 09:49:39;;;;;;;12.25;9.57;;;;;;;35.05;58.84;100884.13;5031751;28;65730;-37
2024/02/18 09:52:13;;;;;;;11.57;10.05;;;;;;;35.14;58.21;100882.63;5031556;28;70621;-39
2024/02/18 09:54:45;;;;;;;9.88;9.07;;;;;;;35.21;58.31;100887.91;5030951;28;67623;-35
2024/02/18 09:57:16;;;;;;;10.18;9.50;;;;;;;35.20;58.31;100874.53;5026456;28;70487;-37
2024/02/18 09:59:47;;;;;;;11.17;10.10;;;;;;;35.27;58.51;100889.66;5036781;28;65230;-35
2024/02/18 10:02:22;;;;;;;10.90;9.57;;;;;;;35.17;59.05;100870.41;5035383;28;69808;-38
2024/02/18 10:04:53;;;;;;;10.65;9.65;;;;;;;35.33;59.15;100896.00;5027279;28;66149;-35
2024/02/18 10:07:25;;;;;;;9.88;9.10;;;;;;;35.38;58.79;100893.34;5040381;28;69943;-35
2024/02/18 10:10:01;;;;;;;10.55;9.57;;;;;;;35.44;59.38;100897.81;5013896;28;66495;-36
2024/02/18 10:12:34;;;;;;;15.27;9.60;;;;;;;35.50;58.80;100895.97;5038333;28;69420;-36
2024/02/18 10:15:07;;;;;;;9.80;8.95;;;;;;;35.53;59.50;100896.28;5036776;28;66309;-36
2024/02/18 10:17:38;;;;;;;13.43;9.35;;;;;;;35.43;59.36;100874.31;5037723;28;70308;-35
2024/02/18 10:20:10;;;;;;;9.63;8.97;;;;;;;35.60;58.82;100895.31;5040348;28;66396;-34
2024/02/18 10:22:42;;;;;;;9.57;8.88;;;;;;;35.63;58.97;100900.25;5032273;28;70148;-36
2024/02/18 10:25:18;;;;;;;9.68;9.07;;;;;;;35.61;59.57;100899.66;5038189;28;66717;-35
2024/02/18 10:27:57;;;;;;;9.60;8.90;;;;;;;35.66;59.53;100891.56;5033816;28;70489;-36
2024/02/18 10:30:30;;;;;;;10.38;9.48;;;;;;;35.66;59.68;100899.75;5035775;28;65798;-35
2024/02/18 10:33:03;;;;;;;10.25;9.43;;;;;;;35.64;59.75;100902.75;5037612;28;70193;-35
2024/02/18 10:35:36;;;;;;;10.00;9.05;;;;;;;35.66;59.26;100906.06;5037783;28;65590;-34
2024/02/18 10:38:13;;;;;;;10.43;9.40;;;;;;;35.51;59.40;100876.59;5037746;28;70310;-35
2024/02/18 10:40:53;;;;;;;13.18;8.90;;;;;;;35.51;59.81;100887.53;5035538;28;65598;-36
2024/02/18 10:43:30;;;;;;;9.73;8.80;;;;;;;35.49;59.47;100884.22;5034754;28;70244;-35
2024/02/18 10:46:05;;;;;;;9.80;8.88;;;;;;;35.47;60.10;100880.94;5034079;28;65878;-35
2024/02/18 10:48:41;;;;;;;9.73;8.80;;;;;;;35.60;60.00;100906.22;5035283;28;70550;-35
2024/02/18 10:51:19;;;;;;;10.10;9.32;;;;;;;35.56;59.72;100906.72;5037458;28;66269;-35
2024/02/18 10:54:12;;;;;;;10.07;9.27;;;;;;;35.62;59.83;100928.63;5029501;28;69825;-35
2024/02/18 10:56:44;;;;;;;10.15;9.35;;;;;;;35.60;59.49;100917.94;5041050;28;66960;-35
2024/02/18 10:59:42;;;;;;;11.07;9.93;;;;;;;35.50;60.18;100920.53;5039510;28;70207;-35
2024/02/18 11:02:54;;;;;;;11.00;10.10;;;;;;;35.49;59.90;100922.41;5038055;28;66551;-36
2024/02/18 11:05:34;;;;;;;12.35;9.35;;;;;;;35.52;59.65;100912.91;5034946;28;69441;-35
2024/02/18 11:08:09;;;;;;;10.93;9.90;;;;;;;35.37;59.71;100897.16;5031803;28;66117;-35
2024/02/18 11:10:44;;;;;;;10.73;9.85;;;;;;;35.51;60.19;100917.53;5035994;28;70168;-36
2024/02/18 11:13:18;;;;;;;11.00;10.20;;;;;;;35.46;59.53;100922.09;5039394;28;66533;-36
2024/02/18 11:15:50;;;;;;;10.73;9.85;;;;;;;35.44;59.72;100925.09;5041422;28;69493;-37
2024/02/18 11:18:25;;;;;;;11.85;10.65;;;;;;;35.36;60.12;100922.78;5037370;28;65603;-38
2024/02/18 11:20:57;;;;;;;11.43;10.55;;;;;;;35.38;60.24;100941.59;5038447;28;70337;-36
2024/02/18 11:23:32;;;;;;;11.88;10.57;;;;;;;35.17;60.31;100908.59;5029444;28;65726;-38
2024/02/18 11:26:03;;;;;;;11.75;10.60;;;;;;;35.28;60.11;100925.94;5038617;28;70507;-38
2024/02/18 11:28:34;;;;;;;11.90;10.77;;;;;;;35.28;59.99;100931.38;5023634;28;66181;-37
2024/02/18 11:31:06;;;;;;;10.65;9.90;;;;;;;35.25;60.77;100931.88;5039934;28;70020;-36
2024/02/18 11:33:38;;;;;;;12.00;10.88;;;;;;;35.23;60.14;100932.13;5039078;28;66236;-37
2024/02/18 11:36:19;;;;;;;12.18;11.18;;;;;;;35.07;61.23;100914.69;5040368;28;70317;-35
2024/02/18 11:39:10;;;;;;;11.45;10.65;;;;;;;35.17;60.52;100937.75;5035407;28;66065;-35